createdAt,value
2022-12-08T00:01:22.638Z,8.75
2022-12-08T00:03:50.442Z,8.72
2022-12-08T00:06:41.754Z,8.64
2022-12-08T00:09:27.304Z,8.44
2022-12-08T00:12:02.827Z,8.28
2022-12-08T00:14:32.392Z,8.21
2022-12-08T00:17:00.249Z,8.35
2022-12-08T00:19:28.057Z,8.41
2022-12-08T00:21:55.525Z,8.29
2022-12-08T00:24:24.273Z,8.29
2022-12-08T00:26:51.174Z,8.37
2022-12-08T00:29:18.733Z,8.53
2022-12-08T00:31:45.772Z,8.61
2022-12-08T00:34:14.159Z,8.60
2022-12-08T00:36:41.579Z,8.57
2022-12-08T00:39:08.619Z,8.62
2022-12-08T00:41:54.414Z,8.67
2022-12-08T00:44:21.315Z,8.74
2022-12-08T00:46:48.859Z,8.74
2022-12-08T00:49:18.789Z,8.61
2022-12-08T00:51:45.705Z,8.62
2022-12-08T00:54:13.029Z,8.64
2022-12-08T00:56:39.941Z,8.64
2022-12-08T00:59:07.661Z,8.54
2022-12-08T01:01:38.088Z,8.18
2022-12-08T01:04:06.719Z,8.21
2022-12-08T01:06:35.437Z,8.33
2022-12-08T01:09:03.724Z,8.39
2022-12-08T01:11:30.524Z,8.18
2022-12-08T01:13:57.351Z,8.04
2022-12-08T01:16:30.535Z,8.20
2022-12-08T01:18:58.710Z,8.42
2022-12-08T01:21:26.001Z,8.39
2022-12-08T01:23:54.024Z,8.25
2022-12-08T01:26:21.137Z,8.36
2022-12-08T01:28:48.383Z,8.46
2022-12-08T01:31:18.560Z,8.33
2022-12-08T01:33:45.985Z,8.31
2022-12-08T01:36:20.733Z,8.32
2022-12-08T01:38:47.523Z,8.40
2022-12-08T01:41:19.528Z,8.50
2022-12-08T01:44:23.649Z,8.64
2022-12-08T01:46:53.250Z,8.75
2022-12-08T01:49:33.764Z,8.63
2022-12-08T01:52:09.107Z,8.59
2022-12-08T01:55:05.237Z,8.64
2022-12-08T01:57:40.474Z,8.61
2022-12-08T02:00:13.904Z,8.66
2022-12-08T02:02:57.285Z,8.72
2022-12-08T02:05:28.234Z,8.80
2022-12-08T02:07:57.357Z,8.79
2022-12-08T02:10:28.236Z,8.84
2022-12-08T02:12:58.062Z,8.77
2022-12-08T02:15:42.956Z,8.59
2022-12-08T02:18:47.872Z,8.62
2022-12-08T02:21:37.020Z,8.72
2022-12-08T02:24:44.825Z,8.50
2022-12-08T02:27:11.614Z,8.41
2022-12-08T02:30:08.897Z,8.37
2022-12-08T02:32:57.300Z,8.32
2022-12-08T02:35:37.790Z,8.28
2022-12-08T02:38:04.786Z,8.32
2022-12-08T02:40:39.804Z,8.39
2022-12-08T02:43:17.772Z,8.48
2022-12-08T02:45:58.065Z,8.54
2022-12-08T02:48:28.421Z,8.67
2022-12-08T02:50:55.532Z,8.73
2022-12-08T02:53:22.212Z,8.76
2022-12-08T02:56:03.581Z,8.82
2022-12-08T02:58:54.353Z,8.82
2022-12-08T03:01:35.828Z,8.75
2022-12-08T03:04:22.822Z,8.65
2022-12-08T03:07:04.929Z,8.78
2022-12-08T03:09:56.664Z,8.84
2022-12-08T03:12:30.575Z,8.81
2022-12-08T03:15:03.944Z,8.77
2022-12-08T03:17:32.235Z,8.84
2022-12-08T03:20:03.946Z,8.83
2022-12-08T03:22:32.386Z,8.87
2022-12-08T03:24:59.093Z,8.87
2022-12-08T03:27:29.528Z,8.86
2022-12-08T03:29:58.340Z,8.94
2022-12-08T03:32:47.972Z,8.93
2022-12-08T03:35:19.356Z,8.79
2022-12-08T03:37:46.189Z,8.78
2022-12-08T03:40:17.625Z,8.78
2022-12-08T03:42:44.442Z,8.76
2022-12-08T03:45:11.427Z,8.81
2022-12-08T03:47:38.180Z,8.77
2022-12-08T03:50:06.000Z,8.69
2022-12-08T03:52:33.098Z,8.63
2022-12-08T03:54:59.743Z,8.49
2022-12-08T03:57:26.553Z,8.60
2022-12-08T03:59:53.278Z,8.67
2022-12-08T04:02:21.772Z,8.65
2022-12-08T04:04:50.867Z,8.66
2022-12-08T04:07:17.656Z,8.68
2022-12-08T04:09:45.508Z,8.64
2022-12-08T04:12:12.281Z,8.68
2022-12-08T04:14:39.007Z,8.61
2022-12-08T04:17:05.840Z,8.62
2022-12-08T04:19:32.631Z,8.60
2022-12-08T04:21:59.422Z,8.55
2022-12-08T04:24:26.205Z,8.58
2022-12-08T04:26:52.983Z,8.58
2022-12-08T04:29:22.384Z,8.54
2022-12-08T04:31:49.185Z,8.35
2022-12-08T04:34:16.012Z,8.11
2022-12-08T04:36:42.726Z,8.10
2022-12-08T04:39:09.446Z,8.13
2022-12-08T04:41:36.276Z,8.22
2022-12-08T04:44:02.999Z,8.28
2022-12-08T04:46:29.882Z,8.28
2022-12-08T04:48:56.686Z,8.31
2022-12-08T04:51:23.833Z,8.25
2022-12-08T04:53:50.586Z,8.21
2022-12-08T04:56:19.136Z,8.10
2022-12-08T04:58:46.208Z,8.14
2022-12-08T05:01:13.586Z,8.12
2022-12-08T05:03:40.334Z,8.11
2022-12-08T05:06:07.419Z,8.09
2022-12-08T05:08:34.362Z,8.00
2022-12-08T05:11:09.940Z,7.95
2022-12-08T05:13:36.762Z,7.93
2022-12-08T05:16:17.308Z,7.86
2022-12-08T05:18:44.457Z,7.77
2022-12-08T05:21:11.184Z,7.79
2022-12-08T05:23:37.972Z,7.86
2022-12-08T05:26:04.839Z,7.98
2022-12-08T05:28:46.876Z,8.12
2022-12-08T05:31:15.460Z,8.20
2022-12-08T05:33:42.751Z,8.25
2022-12-08T05:36:10.084Z,8.27
2022-12-08T05:38:36.860Z,8.35
2022-12-08T05:41:04.444Z,8.42
2022-12-08T05:43:31.175Z,8.50
2022-12-08T05:45:58.184Z,8.58
2022-12-08T05:48:24.950Z,8.65
2022-12-08T05:50:52.102Z,8.67
2022-12-08T05:53:20.435Z,8.59
2022-12-08T05:55:47.852Z,8.53
2022-12-08T05:58:17.530Z,8.52
2022-12-08T06:00:45.316Z,8.57
2022-12-08T06:03:13.080Z,8.55
2022-12-08T06:05:41.196Z,8.54
2022-12-08T06:08:08.212Z,8.56
2022-12-08T06:10:35.105Z,8.59
2022-12-08T06:13:01.878Z,8.61
2022-12-08T06:15:28.567Z,8.59
2022-12-08T06:17:55.386Z,8.62
2022-12-08T06:20:22.148Z,8.64
2022-12-08T06:22:48.997Z,8.68
2022-12-08T06:25:15.757Z,8.57
2022-12-08T06:27:42.495Z,8.48
2022-12-08T06:30:09.511Z,8.35
2022-12-08T06:32:36.844Z,8.25
2022-12-08T06:35:03.895Z,8.18
2022-12-08T06:37:30.652Z,8.19
2022-12-08T06:39:57.483Z,8.35
2022-12-08T06:42:43.123Z,8.35
2022-12-08T06:45:11.705Z,8.27
2022-12-08T06:47:38.648Z,8.32
2022-12-08T06:50:06.420Z,8.39
2022-12-08T06:52:34.909Z,8.48
2022-12-08T06:55:03.503Z,8.37
2022-12-08T06:57:31.468Z,8.39
2022-12-08T06:59:58.254Z,8.41
2022-12-08T07:02:25.018Z,8.40
2022-12-08T07:04:51.980Z,8.38
2022-12-08T07:07:18.769Z,8.38
2022-12-08T07:09:48.268Z,8.29
2022-12-08T07:12:15.015Z,8.21
2022-12-08T07:14:41.934Z,8.18
2022-12-08T07:17:08.733Z,8.21
2022-12-08T07:19:35.510Z,8.13
2022-12-08T07:22:02.234Z,8.13
2022-12-08T07:24:29.069Z,8.09
2022-12-08T07:26:55.829Z,8.09
2022-12-08T07:29:26.235Z,8.10
2022-12-08T07:31:53.339Z,8.16
2022-12-08T07:34:20.090Z,8.20
2022-12-08T07:36:46.960Z,8.22
2022-12-08T07:39:13.820Z,8.20
2022-12-08T07:41:40.653Z,8.22
2022-12-08T07:44:07.418Z,8.23
2022-12-08T07:46:34.328Z,8.31
2022-12-08T07:49:01.333Z,8.36
2022-12-08T07:51:28.315Z,8.39
2022-12-08T07:53:55.428Z,8.46
2022-12-08T07:56:22.945Z,8.47
2022-12-08T07:58:50.044Z,8.50
2022-12-08T08:01:22.662Z,8.47
2022-12-08T08:03:50.333Z,8.46
2022-12-08T08:06:17.163Z,8.43
2022-12-08T08:08:44.280Z,8.44
2022-12-08T08:11:18.992Z,8.45
2022-12-08T08:13:48.200Z,8.47
2022-12-08T08:16:15.068Z,8.46
2022-12-08T08:18:42.274Z,8.52
2022-12-08T08:21:43.329Z,8.55
2022-12-08T08:23:56.615Z,8.63
2022-12-08T08:26:23.398Z,8.72
2022-12-08T08:28:50.309Z,8.79
2022-12-08T08:31:17.133Z,8.87
2022-12-08T08:33:43.961Z,9.00
2022-12-08T08:36:11.574Z,9.08
2022-12-08T08:38:42.859Z,9.21
2022-12-08T08:41:11.074Z,9.35
2022-12-08T08:43:38.899Z,9.45
2022-12-08T08:46:07.014Z,9.53
2022-12-08T08:48:34.005Z,9.62
2022-12-08T08:51:09.086Z,9.74
2022-12-08T08:53:36.378Z,9.83
2022-12-08T08:56:05.227Z,9.87
2022-12-08T08:58:32.816Z,9.85
2022-12-08T09:00:59.721Z,9.87
2022-12-08T09:03:26.781Z,9.89
2022-12-08T09:05:56.228Z,9.94
2022-12-08T09:08:23.718Z,9.97
2022-12-08T09:10:50.619Z,10.00
2022-12-08T09:13:17.503Z,10.10
2022-12-08T09:15:44.376Z,10.21
2022-12-08T09:18:11.131Z,10.29
2022-12-08T09:20:39.887Z,10.38
2022-12-08T09:23:06.895Z,10.44
2022-12-08T09:25:33.846Z,10.50
2022-12-08T09:28:00.554Z,10.52
2022-12-08T09:30:28.152Z,10.55
2022-12-08T09:32:55.003Z,10.53
2022-12-08T09:35:21.832Z,10.61
2022-12-08T09:37:48.563Z,10.73
2022-12-08T09:40:18.865Z,10.78
2022-12-08T09:43:12.376Z,10.82
2022-12-08T09:45:39.701Z,10.88
2022-12-08T09:48:18.788Z,11.01
2022-12-08T09:50:55.240Z,11.08
2022-12-08T09:53:45.422Z,11.31
2022-12-08T09:56:14.808Z,11.41
2022-12-08T09:59:02.112Z,11.40
2022-12-08T10:01:31.480Z,11.40
2022-12-08T10:03:58.933Z,11.49
2022-12-08T10:06:55.664Z,11.59
2022-12-08T10:09:28.087Z,11.73
2022-12-08T10:12:08.149Z,11.79
2022-12-08T10:14:47.228Z,11.83
2022-12-08T10:17:20.951Z,11.80
2022-12-08T10:19:49.961Z,11.79
2022-12-08T10:22:25.590Z,11.82
2022-12-08T10:25:01.377Z,11.86
2022-12-08T10:27:28.293Z,11.88
2022-12-08T10:29:55.246Z,11.91
2022-12-08T10:32:24.405Z,11.85
2022-12-08T10:35:12.104Z,11.93
2022-12-08T10:37:39.755Z,11.97
2022-12-08T10:40:13.434Z,12.02
2022-12-08T10:42:50.930Z,12.04
2022-12-08T10:45:26.792Z,12.01
2022-12-08T10:47:58.303Z,11.97
2022-12-08T10:50:55.920Z,11.95
2022-12-08T10:53:28.495Z,11.94
2022-12-08T10:56:04.123Z,11.96
2022-12-08T10:58:34.181Z,11.99
2022-12-08T11:01:06.904Z,12.04
2022-12-08T11:03:47.733Z,12.12
2022-12-08T11:06:30.728Z,12.21
2022-12-08T11:09:00.308Z,12.44
2022-12-08T11:11:54.438Z,12.64
2022-12-08T11:14:24.290Z,12.68
2022-12-08T11:16:54.961Z,12.81
2022-12-08T11:19:22.116Z,12.91
2022-12-08T11:21:48.958Z,12.95
2022-12-08T11:24:15.697Z,13.03
2022-12-08T11:26:51.536Z,13.14
2022-12-08T11:29:18.817Z,13.22
2022-12-08T11:31:53.531Z,13.31
2022-12-08T11:34:29.629Z,13.33
2022-12-08T11:36:57.459Z,13.34
2022-12-08T11:39:29.392Z,13.37
2022-12-08T11:41:58.381Z,13.51
2022-12-08T11:44:38.317Z,13.56
2022-12-08T11:47:20.597Z,13.67
2022-12-08T11:49:49.156Z,13.75
2022-12-08T11:52:26.566Z,13.82
2022-12-08T11:55:26.784Z,13.68
2022-12-08T11:57:56.529Z,13.43
2022-12-08T12:00:23.502Z,13.34
2022-12-08T12:02:59.754Z,13.47
2022-12-08T12:06:08.808Z,13.62
2022-12-08T12:08:37.548Z,13.75
2022-12-08T12:11:35.985Z,13.75
2022-12-08T12:14:15.770Z,13.67
2022-12-08T12:17:02.242Z,13.70
2022-12-08T12:19:36.534Z,13.79
2022-12-08T12:22:17.854Z,13.77
2022-12-08T12:24:49.585Z,13.79
2022-12-08T12:27:32.502Z,13.77
2022-12-08T12:30:02.914Z,13.81
2022-12-08T12:32:43.403Z,13.79
2022-12-08T12:35:35.811Z,13.72
2022-12-08T12:38:35.400Z,13.65
2022-12-08T12:41:04.914Z,13.66
2022-12-08T12:43:53.404Z,13.77
2022-12-08T12:46:22.960Z,14.03
2022-12-08T12:48:51.115Z,14.05
2022-12-08T12:51:36.053Z,14.01
2022-12-08T12:54:29.507Z,14.01
2022-12-08T12:57:05.574Z,13.94
2022-12-08T12:59:42.696Z,14.07
2022-12-08T13:02:19.331Z,14.22
2022-12-08T13:04:54.095Z,14.29
2022-12-08T13:07:25.733Z,14.28
2022-12-08T13:10:24.448Z,14.27
2022-12-08T13:13:16.580Z,14.13
2022-12-08T13:15:56.485Z,13.93
2022-12-08T13:18:28.968Z,13.73
2022-12-08T13:21:03.432Z,13.55
2022-12-08T13:23:48.778Z,13.43
2022-12-08T13:26:19.685Z,13.43
2022-12-08T13:29:01.630Z,13.38
2022-12-08T13:31:37.528Z,13.38
2022-12-08T13:34:07.943Z,13.37
2022-12-08T13:36:38.911Z,13.34
2022-12-08T13:39:07.635Z,13.37
2022-12-08T13:41:44.386Z,13.37
2022-12-08T13:45:18.746Z,13.32
2022-12-08T13:47:34.883Z,13.31
2022-12-08T13:58:44.109Z,13.03
2022-12-08T14:01:16.755Z,13.02
2022-12-08T14:04:20.372Z,12.99
2022-12-08T14:06:39.073Z,12.95
2022-12-08T14:09:11.432Z,12.91
2022-12-08T14:11:42.363Z,12.90
2022-12-08T14:14:27.261Z,12.91
2022-12-08T14:17:06.057Z,12.85
2022-12-08T14:19:35.245Z,12.82
2022-12-08T14:22:14.061Z,12.84
2022-12-08T14:24:45.264Z,12.84
2022-12-08T14:27:16.573Z,12.84
2022-12-08T14:29:56.365Z,12.81
2022-12-08T14:32:24.880Z,12.76
2022-12-08T14:35:32.103Z,12.74
2022-12-08T14:38:01.563Z,12.69
2022-12-08T14:40:48.722Z,12.67
2022-12-08T14:43:20.876Z,12.62
2022-12-08T14:45:50.831Z,12.59
2022-12-08T14:48:23.490Z,12.57
2022-12-08T14:51:15.060Z,12.56
2022-12-08T14:53:58.802Z,12.54
2022-12-08T14:56:36.434Z,12.53
2022-12-08T14:59:23.085Z,12.51
2022-12-08T15:01:53.370Z,12.49
2022-12-08T15:04:28.807Z,12.47
2022-12-08T15:07:04.810Z,12.40
2022-12-08T15:09:36.419Z,12.39
2022-12-08T15:12:12.202Z,12.34
2022-12-08T15:15:14.580Z,12.26
2022-12-08T15:17:57.559Z,12.25
2022-12-08T15:20:39.413Z,12.27
2022-12-08T15:23:17.637Z,12.28
2022-12-08T15:25:44.592Z,12.28
2022-12-08T15:28:17.018Z,12.32
2022-12-08T15:30:44.016Z,12.30
2022-12-08T15:33:10.747Z,12.32
2022-12-08T15:35:40.925Z,12.34
2022-12-08T15:38:30.838Z,12.35
2022-12-08T15:41:01.014Z,12.36
2022-12-08T15:43:28.240Z,12.32
2022-12-08T15:45:59.669Z,12.30
2022-12-08T15:48:29.393Z,12.29
2022-12-08T15:50:57.012Z,12.27
2022-12-08T15:53:26.485Z,12.27
2022-12-08T15:56:25.896Z,12.25
2022-12-08T15:58:56.919Z,12.25
2022-12-08T16:01:24.860Z,12.24
2022-12-08T16:09:33.337Z,12.27
2022-12-08T16:12:18.991Z,12.28
2022-12-08T16:17:34.023Z,12.29
2022-12-08T16:20:01.750Z,12.27
2022-12-08T16:25:21.385Z,12.24
2022-12-08T16:28:12.468Z,12.22
2022-12-08T16:30:41.261Z,12.18
2022-12-08T16:33:08.143Z,12.15
2022-12-08T16:35:35.037Z,12.16
2022-12-08T16:38:01.930Z,12.13
2022-12-08T16:40:28.879Z,12.11
2022-12-08T16:42:55.833Z,12.10
2022-12-08T16:45:24.502Z,12.11
2022-12-08T16:47:52.612Z,12.12
2022-12-08T16:50:26.955Z,12.12
2022-12-08T16:53:08.004Z,12.13
2022-12-08T16:55:35.406Z,12.09
2022-12-08T16:58:02.834Z,12.09
2022-12-08T17:00:30.893Z,12.07
2022-12-08T17:02:59.082Z,12.08
2022-12-08T17:05:26.814Z,12.05
2022-12-08T17:07:54.818Z,12.03
2022-12-08T17:10:27.845Z,11.89
2022-12-08T17:12:55.268Z,11.87
2022-12-08T17:15:25.651Z,11.83
2022-12-08T17:17:54.019Z,11.85
2022-12-08T17:20:25.090Z,11.85
2022-12-08T17:22:56.714Z,11.84
2022-12-08T17:25:24.219Z,11.86
2022-12-08T17:27:51.290Z,11.77
2022-12-08T17:30:19.079Z,11.80
2022-12-08T17:32:46.295Z,11.78
2022-12-08T17:35:14.464Z,11.71
2022-12-08T17:37:43.371Z,11.75
2022-12-08T17:40:12.560Z,11.74
2022-12-08T17:42:39.483Z,11.67
2022-12-08T17:45:08.129Z,11.69
2022-12-08T17:47:35.696Z,11.69
2022-12-08T17:50:03.060Z,11.65
2022-12-08T17:52:30.399Z,11.64
2022-12-08T17:54:57.796Z,11.64
2022-12-08T17:57:25.337Z,11.67
2022-12-08T17:59:52.607Z,11.71
2022-12-08T18:02:19.784Z,11.73
2022-12-08T18:04:46.602Z,11.73
2022-12-08T18:07:13.654Z,11.75
2022-12-08T18:09:40.742Z,11.77
2022-12-08T18:12:07.880Z,11.84
2022-12-08T18:14:34.625Z,11.81
2022-12-08T18:17:01.692Z,11.81
2022-12-08T18:19:28.929Z,11.82
2022-12-08T18:21:56.091Z,11.81
2022-12-08T18:24:23.946Z,11.81
2022-12-08T18:26:55.466Z,11.79
2022-12-08T18:29:22.931Z,11.77
2022-12-08T18:31:50.324Z,11.77
2022-12-08T18:34:19.147Z,11.80
2022-12-08T18:36:46.677Z,11.79
2022-12-08T18:39:23.476Z,11.77
2022-12-08T18:41:52.336Z,11.78
2022-12-08T18:44:19.762Z,11.77
2022-12-08T18:46:47.235Z,11.76
2022-12-08T18:49:16.523Z,11.76
2022-12-08T18:51:44.259Z,11.72
2022-12-08T18:54:12.418Z,11.62
2022-12-08T18:56:39.905Z,11.56
2022-12-08T18:59:11.594Z,11.54
2022-12-08T19:01:40.133Z,11.43
2022-12-08T19:06:56.975Z,11.23
2022-12-08T19:09:26.912Z,11.25
2022-12-08T19:11:55.066Z,11.24
2022-12-08T19:14:27.860Z,11.33
2022-12-08T19:16:58.453Z,11.39
2022-12-08T19:19:26.580Z,11.40
2022-12-08T19:21:54.092Z,11.41
2022-12-08T19:24:21.134Z,11.45
2022-12-08T19:26:47.952Z,11.47
2022-12-08T19:29:15.126Z,11.50
2022-12-08T19:31:42.158Z,11.48
2022-12-08T19:34:11.996Z,11.48
2022-12-08T19:36:42.695Z,11.43
2022-12-08T19:39:38.899Z,11.49
2022-12-08T19:42:37.470Z,11.49
2022-12-08T19:45:12.024Z,11.43
2022-12-08T19:47:42.821Z,11.37
2022-12-08T19:50:29.457Z,11.35
2022-12-08T19:52:56.731Z,11.22
2022-12-08T19:55:24.120Z,11.15
2022-12-08T19:57:52.121Z,11.18
2022-12-08T20:00:20.572Z,11.18
2022-12-08T20:02:48.557Z,11.22
2022-12-08T20:05:15.921Z,11.26
2022-12-08T20:07:44.270Z,11.31
2022-12-08T20:10:23.191Z,11.33
2022-12-08T20:12:50.227Z,11.35
2022-12-08T20:15:17.843Z,11.36
2022-12-08T20:17:45.135Z,11.41
2022-12-08T20:20:14.124Z,11.48
2022-12-08T20:22:41.910Z,11.50
2022-12-08T20:25:12.946Z,11.48
2022-12-08T20:27:41.498Z,11.40
2022-12-08T20:30:16.470Z,11.40
2022-12-08T20:32:44.920Z,11.39
2022-12-08T20:35:11.996Z,11.40
2022-12-08T20:37:39.134Z,11.41
2022-12-08T20:40:06.694Z,11.30
2022-12-08T20:42:33.881Z,10.99
2022-12-08T20:45:01.733Z,10.97
2022-12-08T20:47:28.835Z,11.04
2022-12-08T20:49:55.995Z,11.10
2022-12-08T20:52:23.019Z,11.14
2022-12-08T20:54:49.935Z,11.21
2022-12-08T20:57:17.008Z,11.30
2022-12-08T20:59:44.398Z,11.28
2022-12-08T21:02:11.725Z,11.28
2022-12-08T21:04:38.894Z,11.29
2022-12-08T21:07:06.128Z,11.33
2022-12-08T21:09:33.441Z,11.19
2022-12-08T21:12:00.496Z,11.12
2022-12-08T21:14:31.157Z,11.15
2022-12-08T21:16:58.497Z,11.22
2022-12-08T21:19:25.483Z,11.31
2022-12-08T21:21:52.536Z,11.23
2022-12-08T21:24:19.714Z,11.23
2022-12-08T21:26:46.823Z,11.19
2022-12-08T21:29:13.742Z,11.20
2022-12-08T21:31:41.273Z,11.13
2022-12-08T21:34:08.357Z,11.04
2022-12-08T21:36:35.784Z,11.10
2022-12-08T21:39:03.127Z,11.13
2022-12-08T21:41:49.328Z,11.16
2022-12-08T21:44:20.272Z,11.20
2022-12-08T21:46:47.907Z,11.23
2022-12-08T21:49:15.711Z,11.26
2022-12-08T21:51:42.901Z,11.26
2022-12-08T21:54:16.711Z,11.26
2022-12-08T21:56:47.657Z,11.24
2022-12-08T21:59:15.408Z,11.16
2022-12-08T22:01:45.307Z,11.07
2022-12-08T22:04:16.032Z,11.06
2022-12-08T22:06:43.177Z,10.99
2022-12-08T22:09:11.904Z,11.00
2022-12-08T22:11:38.944Z,11.05
2022-12-08T22:14:09.584Z,11.09
2022-12-08T22:16:41.030Z,11.02
2022-12-08T22:19:08.115Z,11.01
2022-12-08T22:21:34.946Z,10.99
2022-12-08T22:24:01.781Z,11.02
2022-12-08T22:26:28.667Z,11.05
2022-12-08T22:28:55.439Z,11.08
2022-12-08T22:31:22.875Z,11.16
2022-12-08T22:33:51.092Z,11.18
2022-12-08T22:36:22.382Z,11.19
2022-12-08T22:38:50.494Z,11.12
2022-12-08T22:41:18.165Z,11.02
2022-12-08T22:43:45.761Z,11.06
2022-12-08T22:46:21.590Z,11.09
2022-12-08T22:48:49.097Z,11.11
2022-12-08T22:51:16.985Z,11.13
2022-12-08T22:53:44.556Z,11.15
2022-12-08T22:56:13.505Z,11.16
2022-12-08T22:58:43.043Z,11.16
2022-12-08T23:01:22.591Z,11.17
2022-12-08T23:03:49.732Z,11.17
2022-12-08T23:06:17.253Z,11.29
2022-12-08T23:08:45.267Z,11.39
2022-12-08T23:11:12.493Z,11.29
2022-12-08T23:13:42.382Z,11.19
2022-12-08T23:16:10.943Z,11.20
2022-12-08T23:18:41.173Z,11.11
2022-12-08T23:21:11.166Z,11.06
2022-12-08T23:23:38.572Z,11.03
2022-12-08T23:26:13.959Z,11.04
2022-12-08T23:28:40.751Z,10.93
2022-12-08T23:31:08.524Z,10.89
2022-12-08T23:33:35.608Z,10.87
2022-12-08T23:36:02.581Z,10.85
2022-12-08T23:38:29.542Z,10.96
2022-12-08T23:41:04.326Z,10.96
2022-12-08T23:43:31.432Z,10.93
2022-12-08T23:45:58.934Z,10.99
2022-12-08T23:48:28.239Z,11.05
2022-12-08T23:50:56.243Z,11.04
2022-12-08T23:53:23.964Z,11.07
2022-12-08T23:55:50.807Z,11.14
2022-12-08T23:58:17.799Z,11.08
